sensor_id;sensor_type;location;lat;lon;timestamp;temperature;humidity
10873;DHT22;34586;53.616;10.032;2022-10-16T00:00:56;14.40;99.90
10873;DHT22;34586;53.616;10.032;2022-10-16T00:03:22;14.50;99.90
10873;DHT22;34586;53.616;10.032;2022-10-16T00:05:48;14.40;99.90
10873;DHT22;34586;53.616;10.032;2022-10-16T00:08:14;14.40;99.90
10873;DHT22;34586;53.616;10.032;2022-10-16T00:10:43;14.40;99.90
10873;DHT22;34586;53.616;10.032;2022-10-16T00:13:08;14.50;99.90
10873;DHT22;34586;53.616;10.032;2022-10-16T00:15:36;14.50;99.90
10873;DHT22;34586;53.616;10.032;2022-10-16T00:18:03;14.40;99.90
10873;DHT22;34586;53.616;10.032;2022-10-16T00:20:28;14.50;99.90
10873;DHT22;34586;53.616;10.032;2022-10-16T00:22:54;14.60;99.90
10873;DHT22;34586;53.616;10.032;2022-10-16T00:25:19;14.40;99.90
10873;DHT22;34586;53.616;10.032;2022-10-16T00:27:46;14.50;99.90
10873;DHT22;34586;53.616;10.032;2022-10-16T00:30:12;14.40;99.90
10873;DHT22;34586;53.616;10.032;2022-10-16T00:32:37;14.50;99.90
10873;DHT22;34586;53.616;10.032;2022-10-16T00:35:03;14.50;95.70
10873;DHT22;34586;53.616;10.032;2022-10-16T00:37:31;14.50;85.20
10873;DHT22;34586;53.616;10.032;2022-10-16T00:39:56;14.50;85.20
10873;DHT22;34586;53.616;10.032;2022-10-16T00:42:22;14.50;42.00
10873;DHT22;34586;53.616;10.032;2022-10-16T00:44:53;14.60;17.70
10873;DHT22;34586;53.616;10.032;2022-10-16T00:47:47;14.70;1.00
10873;DHT22;34586;53.616;10.032;2022-10-16T00:50:28;14.70;1.00
10873;DHT22;34586;53.616;10.032;2022-10-16T00:52:55;14.70;1.00
10873;DHT22;34586;53.616;10.032;2022-10-16T00:55:22;14.70;1.00
10873;DHT22;34586;53.616;10.032;2022-10-16T00:57:48;14.70;1.00
10873;DHT22;34586;53.616;10.032;2022-10-16T01:00:18;14.70;1.00
10873;DHT22;34586;53.616;10.032;2022-10-16T01:02:51;14.70;1.00
10873;DHT22;34586;53.616;10.032;2022-10-16T01:05:17;14.70;1.00
10873;DHT22;34586;53.616;10.032;2022-10-16T01:10:40;14.80;1.00
10873;DHT22;34586;53.616;10.032;2022-10-16T01:13:21;14.60;1.00
10873;DHT22;34586;53.616;10.032;2022-10-16T01:18:43;14.60;1.00
10873;DHT22;34586;53.616;10.032;2022-10-16T01:32:36;14.50;1.00
10873;DHT22;34586;53.616;10.032;2022-10-16T01:40:19;14.40;1.00
10873;DHT22;34586;53.616;10.032;2022-10-16T01:42:53;14.40;1.00
10873;DHT22;34586;53.616;10.032;2022-10-16T01:45:20;14.40;1.00
10873;DHT22;34586;53.616;10.032;2022-10-16T01:47:48;14.40;1.00
10873;DHT22;34586;53.616;10.032;2022-10-16T01:50:16;14.30;1.00
10873;DHT22;34586;53.616;10.032;2022-10-16T01:52:45;14.30;1.00
10873;DHT22;34586;53.616;10.032;2022-10-16T01:55:14;14.20;1.00
10873;DHT22;34586;53.616;10.032;2022-10-16T01:57:45;14.20;1.00
10873;DHT22;34586;53.616;10.032;2022-10-16T02:00:13;14.20;1.00
10873;DHT22;34586;53.616;10.032;2022-10-16T02:02:41;14.20;1.00
10873;DHT22;34586;53.616;10.032;2022-10-16T02:07:40;14.00;1.00
10873;DHT22;34586;53.616;10.032;2022-10-16T02:10:08;14.00;1.00
10873;DHT22;34586;53.616;10.032;2022-10-16T02:12:36;14.00;1.00
10873;DHT22;34586;53.616;10.032;2022-10-16T02:15:05;14.00;1.00
10873;DHT22;34586;53.616;10.032;2022-10-16T02:17:31;14.00;1.00
10873;DHT22;34586;53.616;10.032;2022-10-16T02:19:57;14.10;1.00
10873;DHT22;34586;53.616;10.032;2022-10-16T02:22:35;14.10;1.00
10873;DHT22;34586;53.616;10.032;2022-10-16T02:30:27;14.10;1.00
10873;DHT22;34586;53.616;10.032;2022-10-16T02:32:55;14.10;1.00
10873;DHT22;34586;53.616;10.032;2022-10-16T02:35:23;14.00;1.00
10873;DHT22;34586;53.616;10.032;2022-10-16T02:37:50;14.00;1.00
10873;DHT22;34586;53.616;10.032;2022-10-16T02:40:17;14.00;1.00
10873;DHT22;34586;53.616;10.032;2022-10-16T02:42:42;14.00;1.00
10873;DHT22;34586;53.616;10.032;2022-10-16T02:45:10;13.90;1.00
10873;DHT22;34586;53.616;10.032;2022-10-16T02:47:36;13.90;1.00
10873;DHT22;34586;53.616;10.032;2022-10-16T02:50:03;13.80;1.00
10873;DHT22;34586;53.616;10.032;2022-10-16T02:52:28;13.80;1.00
10873;DHT22;34586;53.616;10.032;2022-10-16T02:54:54;13.80;1.00
10873;DHT22;34586;53.616;10.032;2022-10-16T02:57:19;13.80;1.00
10873;DHT22;34586;53.616;10.032;2022-10-16T02:59:45;13.70;1.00
10873;DHT22;34586;53.616;10.032;2022-10-16T03:02:11;13.70;1.00
10873;DHT22;34586;53.616;10.032;2022-10-16T03:04:37;13.60;1.00
10873;DHT22;34586;53.616;10.032;2022-10-16T03:07:03;13.60;1.00
10873;DHT22;34586;53.616;10.032;2022-10-16T03:09:29;13.60;1.00
10873;DHT22;34586;53.616;10.032;2022-10-16T03:11:54;13.50;1.00
10873;DHT22;34586;53.616;10.032;2022-10-16T03:14:20;13.60;1.00
10873;DHT22;34586;53.616;10.032;2022-10-16T03:16:45;13.50;1.00
10873;DHT22;34586;53.616;10.032;2022-10-16T03:19:11;13.50;1.00
10873;DHT22;34586;53.616;10.032;2022-10-16T03:21:36;13.40;1.00
10873;DHT22;34586;53.616;10.032;2022-10-16T03:24:02;13.40;1.00
10873;DHT22;34586;53.616;10.032;2022-10-16T03:26:28;13.30;1.00
10873;DHT22;34586;53.616;10.032;2022-10-16T03:28:53;13.30;2.90
10873;DHT22;34586;53.616;10.032;2022-10-16T03:31:19;13.30;1.00
10873;DHT22;34586;53.616;10.032;2022-10-16T03:33:44;13.30;9.90
10873;DHT22;34586;53.616;10.032;2022-10-16T03:36:10;13.30;13.10
10873;DHT22;34586;53.616;10.032;2022-10-16T03:38:35;13.30;6.50
10873;DHT22;34586;53.616;10.032;2022-10-16T03:41:01;13.30;18.20
10873;DHT22;34586;53.616;10.032;2022-10-16T03:43:27;13.30;18.10
10873;DHT22;34586;53.616;10.032;2022-10-16T03:45:52;13.30;14.60
10873;DHT22;34586;53.616;10.032;2022-10-16T03:48:19;13.30;20.70
10873;DHT22;34586;53.616;10.032;2022-10-16T03:50:44;13.30;12.40
10873;DHT22;34586;53.616;10.032;2022-10-16T03:53:11;13.40;1.00
10873;DHT22;34586;53.616;10.032;2022-10-16T03:55:37;13.40;4.70
10873;DHT22;34586;53.616;10.032;2022-10-16T03:58:02;13.30;17.90
10873;DHT22;34586;53.616;10.032;2022-10-16T04:00:28;13.30;21.80
10873;DHT22;34586;53.616;10.032;2022-10-16T04:02:53;13.30;5.30
10873;DHT22;34586;53.616;10.032;2022-10-16T04:05:19;13.30;8.50
10873;DHT22;34586;53.616;10.032;2022-10-16T04:07:44;13.40;1.00
10873;DHT22;34586;53.616;10.032;2022-10-16T04:10:10;13.30;1.00
10873;DHT22;34586;53.616;10.032;2022-10-16T04:12:36;13.30;4.60
10873;DHT22;34586;53.616;10.032;2022-10-16T04:15:01;13.30;8.10
10873;DHT22;34586;53.616;10.032;2022-10-16T04:17:27;13.40;1.00
10873;DHT22;34586;53.616;10.032;2022-10-16T04:19:52;13.30;1.00
10873;DHT22;34586;53.616;10.032;2022-10-16T04:22:18;13.30;1.00
10873;DHT22;34586;53.616;10.032;2022-10-16T04:24:43;13.40;1.00
10873;DHT22;34586;53.616;10.032;2022-10-16T04:27:09;13.40;1.00
10873;DHT22;34586;53.616;10.032;2022-10-16T04:29:34;13.30;1.00
10873;DHT22;34586;53.616;10.032;2022-10-16T04:32:00;13.30;1.00
10873;DHT22;34586;53.616;10.032;2022-10-16T04:34:27;13.30;1.00
10873;DHT22;34586;53.616;10.032;2022-10-16T04:36:52;13.30;1.00
10873;DHT22;34586;53.616;10.032;2022-10-16T04:39:18;13.20;1.00
10873;DHT22;34586;53.616;10.032;2022-10-16T04:41:43;13.30;1.00
10873;DHT22;34586;53.616;10.032;2022-10-16T04:44:09;13.30;1.00
10873;DHT22;34586;53.616;10.032;2022-10-16T04:46:35;13.30;1.00
10873;DHT22;34586;53.616;10.032;2022-10-16T04:49:00;13.40;1.00
10873;DHT22;34586;53.616;10.032;2022-10-16T04:51:26;13.40;1.00
10873;DHT22;34586;53.616;10.032;2022-10-16T04:53:53;13.40;1.00
10873;DHT22;34586;53.616;10.032;2022-10-16T04:56:18;13.30;1.00
10873;DHT22;34586;53.616;10.032;2022-10-16T04:58:44;13.30;1.00
10873;DHT22;34586;53.616;10.032;2022-10-16T05:01:09;13.10;1.00
10873;DHT22;34586;53.616;10.032;2022-10-16T05:03:35;13.30;1.00
10873;DHT22;34586;53.616;10.032;2022-10-16T05:06:01;13.30;1.00
10873;DHT22;34586;53.616;10.032;2022-10-16T05:08:27;13.40;1.00
10873;DHT22;34586;53.616;10.032;2022-10-16T05:10:52;13.30;1.00
10873;DHT22;34586;53.616;10.032;2022-10-16T05:13:19;13.40;1.00
10873;DHT22;34586;53.616;10.032;2022-10-16T05:15:47;13.30;1.00
10873;DHT22;34586;53.616;10.032;2022-10-16T05:18:13;13.30;1.00
10873;DHT22;34586;53.616;10.032;2022-10-16T05:20:39;13.20;1.00
10873;DHT22;34586;53.616;10.032;2022-10-16T05:23:05;13.10;5.00
10873;DHT22;34586;53.616;10.032;2022-10-16T05:25:30;13.20;12.20
10873;DHT22;34586;53.616;10.032;2022-10-16T05:27:56;13.20;23.60
10873;DHT22;34586;53.616;10.032;2022-10-16T05:30:21;13.20;28.20
10873;DHT22;34586;53.616;10.032;2022-10-16T05:32:50;13.10;31.10
10873;DHT22;34586;53.616;10.032;2022-10-16T05:35:18;13.10;35.00
10873;DHT22;34586;53.616;10.032;2022-10-16T05:37:43;13.10;64.00
10873;DHT22;34586;53.616;10.032;2022-10-16T05:40:09;13.10;60.20
10873;DHT22;34586;53.616;10.032;2022-10-16T05:42:36;13.10;61.00
10873;DHT22;34586;53.616;10.032;2022-10-16T05:45:03;13.20;66.70
10873;DHT22;34586;53.616;10.032;2022-10-16T05:47:29;13.20;61.90
10873;DHT22;34586;53.616;10.032;2022-10-16T05:49:55;13.20;49.90
10873;DHT22;34586;53.616;10.032;2022-10-16T05:52:21;13.30;54.70
10873;DHT22;34586;53.616;10.032;2022-10-16T05:54:46;13.30;35.00
10873;DHT22;34586;53.616;10.032;2022-10-16T05:57:12;13.40;29.00
10873;DHT22;34586;53.616;10.032;2022-10-16T05:59:38;13.40;27.50
10873;DHT22;34586;53.616;10.032;2022-10-16T06:02:03;13.40;28.20
10873;DHT22;34586;53.616;10.032;2022-10-16T06:04:29;13.50;22.50
10873;DHT22;34586;53.616;10.032;2022-10-16T06:06:58;13.50;18.20
10873;DHT22;34586;53.616;10.032;2022-10-16T06:09:25;13.60;14.20
10873;DHT22;34586;53.616;10.032;2022-10-16T06:11:51;13.50;27.30
10873;DHT22;34586;53.616;10.032;2022-10-16T06:14:18;13.60;14.70
10873;DHT22;34586;53.616;10.032;2022-10-16T06:16:43;13.70;2.00
10873;DHT22;34586;53.616;10.032;2022-10-16T06:19:09;13.70;1.00
10873;DHT22;34586;53.616;10.032;2022-10-16T06:21:35;13.70;4.50
10873;DHT22;34586;53.616;10.032;2022-10-16T06:24:01;13.60;21.80
10873;DHT22;34586;53.616;10.032;2022-10-16T06:26:28;13.60;22.10
10873;DHT22;34586;53.616;10.032;2022-10-16T06:28:55;13.60;31.60
10873;DHT22;34586;53.616;10.032;2022-10-16T06:31:21;13.60;43.80
10873;DHT22;34586;53.616;10.032;2022-10-16T06:33:50;13.60;46.80
10873;DHT22;34586;53.616;10.032;2022-10-16T06:36:17;13.60;45.90
10873;DHT22;34586;53.616;10.032;2022-10-16T06:38:43;13.60;58.40
10873;DHT22;34586;53.616;10.032;2022-10-16T06:41:11;13.60;51.10
10873;DHT22;34586;53.616;10.032;2022-10-16T06:43:37;13.60;47.90
10873;DHT22;34586;53.616;10.032;2022-10-16T06:46:04;13.70;40.60
10873;DHT22;34586;53.616;10.032;2022-10-16T06:48:31;13.60;50.00
10873;DHT22;34586;53.616;10.032;2022-10-16T06:51:04;13.60;63.50
10873;DHT22;34586;53.616;10.032;2022-10-16T06:53:33;13.60;80.60
10873;DHT22;34586;53.616;10.032;2022-10-16T06:56:17;13.60;91.20
10873;DHT22;34586;53.616;10.032;2022-10-16T06:58:43;13.60;91.40
10873;DHT22;34586;53.616;10.032;2022-10-16T07:01:10;13.70;86.00
10873;DHT22;34586;53.616;10.032;2022-10-16T07:03:37;13.80;67.70
10873;DHT22;34586;53.616;10.032;2022-10-16T07:06:04;13.80;77.70
10873;DHT22;34586;53.616;10.032;2022-10-16T07:08:34;13.90;90.10
10873;DHT22;34586;53.616;10.032;2022-10-16T07:11:01;14.00;46.30
10873;DHT22;34586;53.616;10.032;2022-10-16T07:13:27;14.10;58.60
10873;DHT22;34586;53.616;10.032;2022-10-16T07:15:53;14.30;40.90
10873;DHT22;34586;53.616;10.032;2022-10-16T07:18:19;14.40;30.70
10873;DHT22;34586;53.616;10.032;2022-10-16T07:20:44;14.50;4.90
10873;DHT22;34586;53.616;10.032;2022-10-16T07:23:10;14.60;1.00
10873;DHT22;34586;53.616;10.032;2022-10-16T07:25:36;14.70;1.00
10873;DHT22;34586;53.616;10.032;2022-10-16T07:28:01;14.90;1.00
10873;DHT22;34586;53.616;10.032;2022-10-16T07:30:27;14.70;1.00
10873;DHT22;34586;53.616;10.032;2022-10-16T07:32:52;14.70;1.00
10873;DHT22;34586;53.616;10.032;2022-10-16T07:35:18;14.70;1.00
10873;DHT22;34586;53.616;10.032;2022-10-16T07:37:47;14.70;1.00
10873;DHT22;34586;53.616;10.032;2022-10-16T07:40:13;14.70;1.00
10873;DHT22;34586;53.616;10.032;2022-10-16T07:42:40;14.70;1.00
10873;DHT22;34586;53.616;10.032;2022-10-16T07:45:06;14.70;1.00
10873;DHT22;34586;53.616;10.032;2022-10-16T07:47:31;14.70;1.30
10873;DHT22;34586;53.616;10.032;2022-10-16T07:49:57;14.80;1.00
10873;DHT22;34586;53.616;10.032;2022-10-16T07:52:22;14.90;1.00
10873;DHT22;34586;53.616;10.032;2022-10-16T07:54:48;15.10;1.00
10873;DHT22;34586;53.616;10.032;2022-10-16T07:57:14;15.20;1.00
10873;DHT22;34586;53.616;10.032;2022-10-16T07:59:45;15.40;1.00
10873;DHT22;34586;53.616;10.032;2022-10-16T08:02:11;15.30;1.00
10873;DHT22;34586;53.616;10.032;2022-10-16T08:04:37;15.20;1.00
10873;DHT22;34586;53.616;10.032;2022-10-16T08:07:03;15.50;1.00
10873;DHT22;34586;53.616;10.032;2022-10-16T08:09:28;15.20;1.00
10873;DHT22;34586;53.616;10.032;2022-10-16T08:11:54;15.30;1.00
10873;DHT22;34586;53.616;10.032;2022-10-16T08:14:19;15.30;1.00
10873;DHT22;34586;53.616;10.032;2022-10-16T08:16:45;15.20;1.00
10873;DHT22;34586;53.616;10.032;2022-10-16T08:19:10;15.20;1.00
10873;DHT22;34586;53.616;10.032;2022-10-16T08:21:41;15.30;1.00
10873;DHT22;34586;53.616;10.032;2022-10-16T08:24:08;15.20;1.00
10873;DHT22;34586;53.616;10.032;2022-10-16T08:26:34;15.20;1.00
10873;DHT22;34586;53.616;10.032;2022-10-16T08:28:59;15.20;1.00
10873;DHT22;34586;53.616;10.032;2022-10-16T08:31:25;15.20;1.00
10873;DHT22;34586;53.616;10.032;2022-10-16T08:33:52;15.90;1.00
10873;DHT22;34586;53.616;10.032;2022-10-16T08:36:18;15.30;1.00
10873;DHT22;34586;53.616;10.032;2022-10-16T08:38:43;15.40;1.00
10873;DHT22;34586;53.616;10.032;2022-10-16T08:46:39;15.60;1.00
10873;DHT22;34586;53.616;10.032;2022-10-16T08:49:10;15.80;1.00
10873;DHT22;34586;53.616;10.032;2022-10-16T08:51:37;16.10;1.00
10873;DHT22;34586;53.616;10.032;2022-10-16T08:56:57;15.70;1.00
10873;DHT22;34586;53.616;10.032;2022-10-16T08:59:26;15.70;1.00
10873;DHT22;34586;53.616;10.032;2022-10-16T09:01:52;15.60;1.00
10873;DHT22;34586;53.616;10.032;2022-10-16T09:07:09;15.70;1.00
10873;DHT22;34586;53.616;10.032;2022-10-16T09:12:59;15.70;1.00
10873;DHT22;34586;53.616;10.032;2022-10-16T09:15:53;15.80;1.00
10873;DHT22;34586;53.616;10.032;2022-10-16T09:18:32;15.90;1.00
10873;DHT22;34586;53.616;10.032;2022-10-16T09:21:09;15.90;1.00
10873;DHT22;34586;53.616;10.032;2022-10-16T09:23:36;16.00;99.90
10873;DHT22;34586;53.616;10.032;2022-10-16T09:26:03;16.20;99.90
10873;DHT22;34586;53.616;10.032;2022-10-16T09:28:30;16.30;39.80
10873;DHT22;34586;53.616;10.032;2022-10-16T09:30:56;16.20;99.90
10873;DHT22;34586;53.616;10.032;2022-10-16T09:33:27;16.20;17.50
10873;DHT22;34586;53.616;10.032;2022-10-16T09:35:56;16.30;1.00
10873;DHT22;34586;53.616;10.032;2022-10-16T09:38:32;16.30;1.00
10873;DHT22;34586;53.616;10.032;2022-10-16T09:41:02;16.20;61.30
10873;DHT22;34586;53.616;10.032;2022-10-16T09:43:39;16.20;41.50
10873;DHT22;34586;53.616;10.032;2022-10-16T09:46:25;16.20;1.00
10873;DHT22;34586;53.616;10.032;2022-10-16T09:48:53;16.20;37.50
10873;DHT22;34586;53.616;10.032;2022-10-16T09:54:00;16.20;1.00
10873;DHT22;34586;53.616;10.032;2022-10-16T09:56:31;16.30;99.90
10873;DHT22;34586;53.616;10.032;2022-10-16T09:59:08;16.70;99.90
10873;DHT22;34586;53.616;10.032;2022-10-16T10:01:48;16.40;99.90
10873;DHT22;34586;53.616;10.032;2022-10-16T10:04:16;16.40;26.40
10873;DHT22;34586;53.616;10.032;2022-10-16T10:09:40;16.50;1.00
10873;DHT22;34586;53.616;10.032;2022-10-16T10:12:23;16.50;99.90
10873;DHT22;34586;53.616;10.032;2022-10-16T10:14:51;16.50;99.90
10873;DHT22;34586;53.616;10.032;2022-10-16T10:17:20;16.60;99.90
10873;DHT22;34586;53.616;10.032;2022-10-16T10:19:49;16.70;1.00
10873;DHT22;34586;53.616;10.032;2022-10-16T10:28:44;16.80;99.90
10873;DHT22;34586;53.616;10.032;2022-10-16T10:33:50;16.70;99.90
10873;DHT22;34586;53.616;10.032;2022-10-16T10:39:13;16.70;99.90
10873;DHT22;34586;53.616;10.032;2022-10-16T10:56:04;17.50;1.00
10873;DHT22;34586;53.616;10.032;2022-10-16T11:02:10;17.60;1.00
10873;DHT22;34586;53.616;10.032;2022-10-16T11:07:28;17.60;1.00
10873;DHT22;34586;53.616;10.032;2022-10-16T11:10:02;17.50;99.90
10873;DHT22;34586;53.616;10.032;2022-10-16T11:12:33;17.40;99.90
10873;DHT22;34586;53.616;10.032;2022-10-16T11:15:16;17.30;1.00
10873;DHT22;34586;53.616;10.032;2022-10-16T11:20:40;17.30;1.00
10873;DHT22;34586;53.616;10.032;2022-10-16T11:23:20;17.30;7.30
10873;DHT22;34586;53.616;10.032;2022-10-16T11:25:49;17.30;99.90
10873;DHT22;34586;53.616;10.032;2022-10-16T11:28:37;17.40;1.00
10873;DHT22;34586;53.616;10.032;2022-10-16T11:33:59;17.60;1.00
10873;DHT22;34586;53.616;10.032;2022-10-16T11:36:33;17.50;1.00
10873;DHT22;34586;53.616;10.032;2022-10-16T11:41:41;18.00;99.90
10873;DHT22;34586;53.616;10.032;2022-10-16T11:44:31;18.30;99.90
10873;DHT22;34586;53.616;10.032;2022-10-16T11:49:28;18.30;1.00
10873;DHT22;34586;53.616;10.032;2022-10-16T11:57:38;17.90;99.90
10873;DHT22;34586;53.616;10.032;2022-10-16T12:00:26;17.90;1.00
10873;DHT22;34586;53.616;10.032;2022-10-16T12:08:18;17.90;1.00
10873;DHT22;34586;53.616;10.032;2022-10-16T12:10:46;17.90;1.00
10873;DHT22;34586;53.616;10.032;2022-10-16T12:13:34;18.30;1.00
10873;DHT22;34586;53.616;10.032;2022-10-16T12:18:45;20.00;99.90
10873;DHT22;34586;53.616;10.032;2022-10-16T12:21:13;20.40;1.00
10873;DHT22;34586;53.616;10.032;2022-10-16T12:23:55;20.70;1.00
10873;DHT22;34586;53.616;10.032;2022-10-16T12:26:39;20.90;1.00
10873;DHT22;34586;53.616;10.032;2022-10-16T12:29:34;20.70;1.00
10873;DHT22;34586;53.616;10.032;2022-10-16T12:32:04;20.70;1.00
10873;DHT22;34586;53.616;10.032;2022-10-16T12:34:37;20.30;99.90
10873;DHT22;34586;53.616;10.032;2022-10-16T12:37:24;20.10;1.00
10873;DHT22;34586;53.616;10.032;2022-10-16T12:39:53;19.40;99.90
10873;DHT22;34586;53.616;10.032;2022-10-16T12:44:51;18.50;1.00
10873;DHT22;34586;53.616;10.032;2022-10-16T12:49:55;18.40;1.00
10873;DHT22;34586;53.616;10.032;2022-10-16T12:54:59;18.30;1.00
10873;DHT22;34586;53.616;10.032;2022-10-16T12:57:41;18.30;1.00
10873;DHT22;34586;53.616;10.032;2022-10-16T13:00:28;18.40;99.90
10873;DHT22;34586;53.616;10.032;2022-10-16T13:22:41;18.10;99.90
10873;DHT22;34586;53.616;10.032;2022-10-16T13:25:28;18.20;99.90
10873;DHT22;34586;53.616;10.032;2022-10-16T13:28:06;18.40;1.00
10873;DHT22;34586;53.616;10.032;2022-10-16T13:30:40;18.60;99.90
10873;DHT22;34586;53.616;10.032;2022-10-16T13:33:14;18.60;51.90
10873;DHT22;34586;53.616;10.032;2022-10-16T13:35:48;18.50;99.90
10873;DHT22;34586;53.616;10.032;2022-10-16T13:38:17;18.60;1.00
10873;DHT22;34586;53.616;10.032;2022-10-16T13:41:06;18.80;99.90
10873;DHT22;34586;53.616;10.032;2022-10-16T13:43:43;18.90;1.00
10873;DHT22;34586;53.616;10.032;2022-10-16T13:46:18;18.80;1.00
10873;DHT22;34586;53.616;10.032;2022-10-16T13:49:00;18.70;99.90
10873;DHT22;34586;53.616;10.032;2022-10-16T13:51:27;18.50;1.00
10873;DHT22;34586;53.616;10.032;2022-10-16T13:53:55;18.30;1.00
10873;DHT22;34586;53.616;10.032;2022-10-16T13:56:25;18.30;1.00
10873;DHT22;34586;53.616;10.032;2022-10-16T13:59:20;18.10;1.00
10873;DHT22;34586;53.616;10.032;2022-10-16T14:01:47;18.00;99.90
10873;DHT22;34586;53.616;10.032;2022-10-16T14:04:14;18.20;93.30
10873;DHT22;34586;53.616;10.032;2022-10-16T14:06:43;19.20;1.00
10873;DHT22;34586;53.616;10.032;2022-10-16T14:09:25;18.00;1.00
10873;DHT22;34586;53.616;10.032;2022-10-16T14:11:55;18.00;99.90
10873;DHT22;34586;53.616;10.032;2022-10-16T14:14:23;18.10;1.00
10873;DHT22;34586;53.616;10.032;2022-10-16T14:16:50;18.20;1.00
10873;DHT22;34586;53.616;10.032;2022-10-16T14:21:47;18.20;99.90
10873;DHT22;34586;53.616;10.032;2022-10-16T14:24:13;18.10;2.30
10873;DHT22;34586;53.616;10.032;2022-10-16T14:26:47;18.00;99.90
10873;DHT22;34586;53.616;10.032;2022-10-16T14:29:18;17.90;1.00
10873;DHT22;34586;53.616;10.032;2022-10-16T14:31:57;17.90;1.00
10873;DHT22;34586;53.616;10.032;2022-10-16T14:34:26;17.90;1.00
10873;DHT22;34586;53.616;10.032;2022-10-16T14:36:53;18.10;1.00
10873;DHT22;34586;53.616;10.032;2022-10-16T14:39:21;17.90;1.00
10873;DHT22;34586;53.616;10.032;2022-10-16T14:41:49;17.80;24.40
10873;DHT22;34586;53.616;10.032;2022-10-16T14:44:17;18.00;92.70
10873;DHT22;34586;53.616;10.032;2022-10-16T14:46:44;17.80;1.00
10873;DHT22;34586;53.616;10.032;2022-10-16T14:51:36;17.80;99.90
10873;DHT22;34586;53.616;10.032;2022-10-16T14:54:03;17.70;1.00
10873;DHT22;34586;53.616;10.032;2022-10-16T14:56:53;17.70;33.30
10873;DHT22;34586;53.616;10.032;2022-10-16T14:59:40;17.50;1.00
10873;DHT22;34586;53.616;10.032;2022-10-16T15:02:29;17.30;1.00
10873;DHT22;34586;53.616;10.032;2022-10-16T15:04:55;17.30;1.00
10873;DHT22;34586;53.616;10.032;2022-10-16T15:07:21;17.30;1.00
10873;DHT22;34586;53.616;10.032;2022-10-16T15:09:47;17.10;1.00
10873;DHT22;34586;53.616;10.032;2022-10-16T15:12:13;17.30;5.60
10873;DHT22;34586;53.616;10.032;2022-10-16T15:14:38;17.80;1.00
10873;DHT22;34586;53.616;10.032;2022-10-16T15:17:04;16.90;1.00
10873;DHT22;34586;53.616;10.032;2022-10-16T15:19:32;17.00;9.40
10873;DHT22;34586;53.616;10.032;2022-10-16T15:21:59;17.70;1.00
10873;DHT22;34586;53.616;10.032;2022-10-16T15:24:25;16.90;99.90
10873;DHT22;34586;53.616;10.032;2022-10-16T15:26:50;16.90;1.00
10873;DHT22;34586;53.616;10.032;2022-10-16T15:29:16;16.70;1.00
10873;DHT22;34586;53.616;10.032;2022-10-16T15:31:41;16.90;1.00
10873;DHT22;34586;53.616;10.032;2022-10-16T15:34:13;16.60;99.90
10873;DHT22;34586;53.616;10.032;2022-10-16T15:36:39;16.50;99.90
10873;DHT22;34586;53.616;10.032;2022-10-16T15:39:17;16.40;99.90
10873;DHT22;34586;53.616;10.032;2022-10-16T15:41:45;16.30;58.10
10873;DHT22;34586;53.616;10.032;2022-10-16T15:44:16;16.20;1.00
10873;DHT22;34586;53.616;10.032;2022-10-16T15:46:43;16.10;1.00
10873;DHT22;34586;53.616;10.032;2022-10-16T15:49:09;16.00;99.90
10873;DHT22;34586;53.616;10.032;2022-10-16T15:51:39;15.80;99.90
10873;DHT22;34586;53.616;10.032;2022-10-16T15:54:07;15.90;81.20
10873;DHT22;34586;53.616;10.032;2022-10-16T15:56:32;15.60;1.00
10873;DHT22;34586;53.616;10.032;2022-10-16T15:58:59;15.50;1.00
10873;DHT22;34586;53.616;10.032;2022-10-16T16:01:26;15.40;99.90
10873;DHT22;34586;53.616;10.032;2022-10-16T16:03:55;15.30;1.00
10873;DHT22;34586;53.616;10.032;2022-10-16T16:06:22;16.20;1.00
10873;DHT22;34586;53.616;10.032;2022-10-16T16:09:01;16.00;99.90
10873;DHT22;34586;53.616;10.032;2022-10-16T16:11:26;15.00;1.00
10873;DHT22;34586;53.616;10.032;2022-10-16T16:13:52;15.00;64.10
10873;DHT22;34586;53.616;10.032;2022-10-16T16:16:19;15.10;13.70
10873;DHT22;34586;53.616;10.032;2022-10-16T16:18:45;15.10;1.00
10873;DHT22;34586;53.616;10.032;2022-10-16T16:21:11;16.20;94.40
10873;DHT22;34586;53.616;10.032;2022-10-16T16:23:37;15.10;1.00
10873;DHT22;34586;53.616;10.032;2022-10-16T16:26:13;15.60;99.90
10873;DHT22;34586;53.616;10.032;2022-10-16T16:28:40;15.00;5.90
10873;DHT22;34586;53.616;10.032;2022-10-16T16:31:07;14.90;1.00
10873;DHT22;34586;53.616;10.032;2022-10-16T16:33:33;14.90;1.00
10873;DHT22;34586;53.616;10.032;2022-10-16T16:36:00;15.50;1.00
10873;DHT22;34586;53.616;10.032;2022-10-16T16:38:27;14.70;1.00
10873;DHT22;34586;53.616;10.032;2022-10-16T16:40:53;14.60;99.90
10873;DHT22;34586;53.616;10.032;2022-10-16T16:43:19;14.70;99.90
10873;DHT22;34586;53.616;10.032;2022-10-16T16:45:47;14.70;1.00
10873;DHT22;34586;53.616;10.032;2022-10-16T16:48:13;14.60;1.00
10873;DHT22;34586;53.616;10.032;2022-10-16T16:50:39;14.60;1.00
10873;DHT22;34586;53.616;10.032;2022-10-16T16:53:04;14.50;99.90
10873;DHT22;34586;53.616;10.032;2022-10-16T16:55:30;14.40;27.40
10873;DHT22;34586;53.616;10.032;2022-10-16T16:57:55;14.30;99.90
10873;DHT22;34586;53.616;10.032;2022-10-16T17:00:22;14.30;1.00
10873;DHT22;34586;53.616;10.032;2022-10-16T17:02:48;14.20;1.00
10873;DHT22;34586;53.616;10.032;2022-10-16T17:05:14;14.10;1.00
10873;DHT22;34586;53.616;10.032;2022-10-16T17:07:40;14.00;99.90
10873;DHT22;34586;53.616;10.032;2022-10-16T17:10:06;14.10;99.90
10873;DHT22;34586;53.616;10.032;2022-10-16T17:12:32;13.90;99.90
10873;DHT22;34586;53.616;10.032;2022-10-16T17:14:58;13.90;1.00
10873;DHT22;34586;53.616;10.032;2022-10-16T17:17:23;13.80;1.00
10873;DHT22;34586;53.616;10.032;2022-10-16T17:19:50;15.20;1.00
10873;DHT22;34586;53.616;10.032;2022-10-16T17:22:16;13.70;1.00
10873;DHT22;34586;53.616;10.032;2022-10-16T17:24:43;14.00;1.00
10873;DHT22;34586;53.616;10.032;2022-10-16T17:27:09;13.60;1.00
10873;DHT22;34586;53.616;10.032;2022-10-16T17:29:37;13.50;1.00
10873;DHT22;34586;53.616;10.032;2022-10-16T17:32:02;13.40;1.00
10873;DHT22;34586;53.616;10.032;2022-10-16T17:34:28;13.40;1.00
10873;DHT22;34586;53.616;10.032;2022-10-16T17:36:54;13.30;1.00
10873;DHT22;34586;53.616;10.032;2022-10-16T17:39:19;13.30;1.00
10873;DHT22;34586;53.616;10.032;2022-10-16T17:41:47;13.80;1.00
10873;DHT22;34586;53.616;10.032;2022-10-16T17:44:14;13.10;1.00
10873;DHT22;34586;53.616;10.032;2022-10-16T17:46:48;13.10;1.00
10873;DHT22;34586;53.616;10.032;2022-10-16T17:49:14;13.20;1.00
10873;DHT22;34586;53.616;10.032;2022-10-16T17:51:40;13.00;1.00
10873;DHT22;34586;53.616;10.032;2022-10-16T17:54:06;13.00;1.00